עמוד ראשי
METAR-TAF:

METAR-TAF

שדות תעופה :

Yurimaguas, פרו

קו רוחב: 05-54S, קו אורך: 076-05W, גובה: 179מטר

תצפית מזג אוויר נוכחית

הדו"ח נערך לפני 16 שעות ו 14דקות, בשעה 23:00 UTC
רוח 3קשר מכיוון צפון/צפון-מערב
טמפרטורת 29 צלסיוס
לחות 79%
לחץ 1009 hPa
ראות 10 קילומטר או יותר
עננים פזורים בגובה 1500רגל

METAR: SPMS 232300Z 33003KT 9999 SCT015 29/25 Q1009 RMK BIRD HAZARD RWY09/27 PP000

זמן: 10:14 (15:14 UTC)

תחזית

הדו"ח נערך לפני 4 שעות ו 14דקות, בשעה 11:00 UTC
תחזית בתוקף מ 24 ב 12 UTC עד 25 ב 12 UTC
רוח 5קשר מכיוון צפון/צפון-מזרח
ראות 10 קילומטר או יותר
עננים פזורים בגובה 1500רגל
עננים בינוניים בגובה 10000רגל
זמנית מ -
24 ב 12 UTC עד 24 ב 14 UTC
ראות: 3000מטר
עננים בינוניים בגובה 800רגל
אד
זמנית מ -
24 ב 18 UTC עד 24 ב 22 UTC
ראות: 3000מטר
עננים בינוניים בגובה 1000רגל
מעט עננים בגובה 2500רגל , קומולוס מיגדלי.
עננים בינוניים בגובה 8000רגל
ממטרי גשם,

TAF: SPMS 241100Z 2412/2512 02005KT 9999 SCT015 BKN100 TX33/2419Z TN23/2511Z TEMPO 2412/2414 3000 BR BKN008 TEMPO 2418/2422 3000 SHRA BKN010 FEW025TCU BKN080

תצפיות ותחזיות מזג אוויר לגבי יותר מ- 4,000 שדות תעופה ברחבי העולם. דוחות METAR ו- TAF.

התחנות הזמינות מסומנות בנקודות צהובות ואדומות על גבי המפה.

העבר את העכבר לנקודה הצבעונית על מנת לראות את שם התחנה.

לאחר מכן, לחץ כדי לראות את תוכן ואת תחזיות מזג האוויר.

כדי לשנות את המפה: לחץ על הכפתורים הירוקים עם הפלוס השחור כדי להתקרב; על הכפתור הירוק עם המקף כדי להתרחק; או בחיצים הירוקים למפות סמוכות.


METAR-TAF: